Decoded Metar for KGGE (GEORGETOWN in SC, USA) (IATA:GGE) | Meteo·Mobile Aviation Weather
aviador You're here:

KGGE Decoded Metar

GEORGETOWN in SC, USA
Report Time2020-02-22 22:35:00
UTC Time2020-02-22 22:41:01
Flight Rules vfr VFR
Wind120° at 05 kt
W.Decomp.*RWY 11: 4.8 kt HW 1.4 kt RCW
RWY 05: 1.2 kt HW 4.9 kt RCW
Visibility9999 m
Phenomena:N/A
Clouds:N/A
Expected CloudBase > 5,200 ft AGL from Temp-Dew spread
CeilingNone
Temp09°C (ISA -6)
Dew Point-4°C (40% RH)
AAT4.7°C
QNH1029 hPa
Density Alt-1,145 ft
Elevation39 ft
Report Wrong Elevation
Raw Report
METAR KGGE 222235Z AUTO 12005KT 10SM CLR 09/M04 A3038 RMK AO2=

Extra information for KGGE:More info

Metar Taf Metar & Taf Last 4 Metars F.Rules Stats Wind Profile Meteogram Temp Stats Airport Information Weather charts Add Link Nearby VenuesMetar ALERT Operation Metar Decoded Social comments

AIRNAV info for KGGE